Terminal Aerodrome Forecast
Issued by NWS

Home | Current Version | Previous Version | Text Only | Print | Product List | Glossary On
Versions: 1 2 3 4 5 6 7 8 9 10 11 12 13 14 15 16 17 18 19 20 21 22 23 24 25 26 27 28
000
FTUS45 KGJT 292340
TAFTEX
TAF
KTEX 292340Z 3000/3024 26008G15KT P6SM FEW090
     FM300200 27004KT P6SM SCT200
     FM301500 13003KT P6SM SCT200
     FM301900 23010G17KT P6SM SCT100 BKN200=

USA.gov is the U.S. government's official web portal to all federal, state and local government web resources and services.